Time;durP1;ratioP1;P1;durP2;ratioP2;P2;SDS_P1;SDS_P2;PMS_P1;PMS_P2;Temp;Humidity;BMP_temperature;BMP_pressure;BME280_temperature;BME280_humidity;BME280_pressure;Samples;Min_cycle;Max_cycle;Signal;HPM_P1;HPM_P2
2021/05/09 00:01:22;;;;;;;18.80;15.38;;;;;;;;;;5024852;28;20048;-73
2021/05/09 00:03:49;;;;;;;24.63;15.55;;;;;;;;;;5026718;28;20053;-73
2021/05/09 00:06:15;;;;;;;23.55;15.93;;;;;;;;;;5027415;28;20087;-74
2021/05/09 00:08:41;;;;;;;21.83;14.55;;;;;;;;;;5026067;28;20038;-73
2021/05/09 00:11:08;;;;;;;20.38;15.23;;;;;;;;;;5026665;28;20124;-74
2021/05/09 00:13:35;;;;;;;20.63;15.05;;;;;;;;;;5027544;28;20121;-74
2021/05/09 00:16:01;;;;;;;22.33;15.32;;;;;;;;;;5026435;28;20050;-73
2021/05/09 00:18:27;;;;;;;19.27;14.68;;;;;;;;;;5026755;28;20060;-73
2021/05/09 00:20:55;;;;;;;21.75;14.05;;;;;;;;;;5027826;28;20041;-74
2021/05/09 00:23:21;;;;;;;23.02;14.73;;;;;;;;;;5024765;28;20037;-73
2021/05/09 00:25:51;;;;;;;22.27;15.40;;;;;;;;;;5026965;28;20049;-73
2021/05/09 00:28:18;;;;;;;20.02;13.65;;;;;;;;;;5025369;28;20037;-73
2021/05/09 00:30:44;;;;;;;19.67;14.10;;;;;;;;;;5026149;28;20061;-73
2021/05/09 00:33:11;;;;;;;18.85;14.35;;;;;;;;;;5024580;28;20049;-74
2021/05/09 00:35:37;;;;;;;22.10;14.27;;;;;;;;;;5011988;28;20049;-73
2021/05/09 00:38:03;;;;;;;20.85;13.88;;;;;;;;;;4999895;28;20456;-73
2021/05/09 00:40:30;;;;;;;22.40;13.85;;;;;;;;;;5018418;28;20425;-73
2021/05/09 00:42:57;;;;;;;19.33;13.68;;;;;;;;;;5024265;28;20729;-73
2021/05/09 00:45:24;;;;;;;23.88;14.95;;;;;;;;;;5027347;28;20429;-73
2021/05/09 00:47:51;;;;;;;20.15;13.55;;;;;;;;;;5027951;28;20049;-73
2021/05/09 00:50:19;;;;;;;25.20;14.57;;;;;;;;;;5026123;28;20087;-73
2021/05/09 00:52:49;;;;;;;23.58;14.32;;;;;;;;;;5026584;28;20432;-73
2021/05/09 00:55:16;;;;;;;23.67;14.10;;;;;;;;;;5026438;28;20053;-73
2021/05/09 00:57:44;;;;;;;20.88;13.57;;;;;;;;;;5011788;28;20046;-73
2021/05/09 01:00:12;;;;;;;20.13;13.27;;;;;;;;;;5007620;28;20056;-73
2021/05/09 01:02:40;;;;;;;19.27;13.90;;;;;;;;;;4999934;28;21794;-73
2021/05/09 01:05:07;;;;;;;18.23;13.50;;;;;;;;;;4999979;28;20095;-73
2021/05/09 01:07:34;;;;;;;19.13;13.55;;;;;;;;;;4998128;28;20049;-74
2021/05/09 01:10:05;;;;;;;21.05;14.00;;;;;;;;;;5023874;28;20041;-73
2021/05/09 01:12:33;;;;;;;20.08;13.77;;;;;;;;;;5024736;28;20105;-73
2021/05/09 01:15:02;;;;;;;19.30;12.68;;;;;;;;;;5025807;28;20152;-73
2021/05/09 01:17:29;;;;;;;21.85;12.82;;;;;;;;;;5025267;28;20500;-74
2021/05/09 01:19:59;;;;;;;20.10;13.15;;;;;;;;;;5026355;28;20041;-73
2021/05/09 01:22:27;;;;;;;22.63;13.55;;;;;;;;;;5022659;28;20041;-73
2021/05/09 01:24:54;;;;;;;21.23;12.60;;;;;;;;;;5024242;28;20518;-73
2021/05/09 01:27:20;;;;;;;19.50;12.82;;;;;;;;;;5006427;28;20048;-73
2021/05/09 01:29:46;;;;;;;22.48;13.10;;;;;;;;;;5007973;28;20039;-73
2021/05/09 01:32:14;;;;;;;20.83;12.13;;;;;;;;;;5023901;28;20037;-73
2021/05/09 01:34:40;;;;;;;16.52;12.57;;;;;;;;;;5020779;28;20053;-74
2021/05/09 01:37:07;;;;;;;18.17;12.57;;;;;;;;;;5024256;28;20408;-74
2021/05/09 01:39:38;;;;;;;22.52;11.93;;;;;;;;;;5024417;28;20474;-73
2021/05/09 01:42:05;;;;;;;17.45;10.50;;;;;;;;;;5025502;28;20044;-73
2021/05/09 01:44:51;;;;;;;17.30;11.00;;;;;;;;;;5026147;28;20045;-73
2021/05/09 01:47:18;;;;;;;17.23;11.10;;;;;;;;;;5023893;28;20140;-73
2021/05/09 01:49:44;;;;;;;17.70;10.88;;;;;;;;;;5025006;28;20103;-73
2021/05/09 01:52:10;;;;;;;16.08;10.80;;;;;;;;;;5024670;28;20120;-73
2021/05/09 01:54:36;;;;;;;20.45;11.77;;;;;;;;;;5024317;28;20048;-73
2021/05/09 01:57:03;;;;;;;22.08;12.07;;;;;;;;;;4981053;28;20042;-73
2021/05/09 01:59:30;;;;;;;17.95;11.80;;;;;;;;;;4995949;28;20075;-73
2021/05/09 02:02:00;;;;;;;18.98;11.85;;;;;;;;;;4980681;28;20081;-73
2021/05/09 02:04:34;;;;;;;19.35;11.73;;;;;;;;;;4996534;28;20045;-73
2021/05/09 02:07:21;;;;;;;18.98;11.52;;;;;;;;;;4983355;28;20113;-73
2021/05/09 02:09:47;;;;;;;17.63;11.65;;;;;;;;;;4995225;28;20060;-73
2021/05/09 02:12:14;;;;;;;20.02;11.65;;;;;;;;;;4999090;28;20054;-73
2021/05/09 02:14:40;;;;;;;15.27;10.98;;;;;;;;;;4997569;28;20076;-73
2021/05/09 02:17:07;;;;;;;17.38;11.63;;;;;;;;;;5012939;28;20041;-73
2021/05/09 02:19:33;;;;;;;19.80;11.50;;;;;;;;;;5025477;28;20038;-73
2021/05/09 02:22:07;;;;;;;17.05;11.35;;;;;;;;;;5024040;28;20230;-73
2021/05/09 02:24:33;;;;;;;22.85;11.40;;;;;;;;;;5024266;28;20052;-73
2021/05/09 02:27:00;;;;;;;22.38;13.20;;;;;;;;;;5025491;28;20053;-73
2021/05/09 02:29:27;;;;;;;19.85;12.95;;;;;;;;;;5019125;28;20139;-73
2021/05/09 02:31:53;;;;;;;19.92;13.38;;;;;;;;;;5022252;28;20086;-73
2021/05/09 02:34:20;;;;;;;22.58;13.25;;;;;;;;;;5021811;28;20050;-73
2021/05/09 02:36:46;;;;;;;17.88;12.68;;;;;;;;;;5016917;28;20042;-74
2021/05/09 02:39:13;;;;;;;23.52;12.80;;;;;;;;;;4996902;28;20570;-73
2021/05/09 02:41:40;;;;;;;19.60;12.38;;;;;;;;;;4994915;28;20179;-73
2021/05/09 02:44:06;;;;;;;23.88;13.43;;;;;;;;;;4995647;28;20091;-73
2021/05/09 02:46:32;;;;;;;20.17;12.38;;;;;;;;;;5023383;28;20167;-73
2021/05/09 02:48:59;;;;;;;19.23;12.40;;;;;;;;;;5023974;28;20373;-73
2021/05/09 02:51:25;;;;;;;22.88;13.60;;;;;;;;;;5023732;28;20056;-74
2021/05/09 02:53:51;;;;;;;16.05;12.45;;;;;;;;;;5023187;28;20046;-73
2021/05/09 02:56:18;;;;;;;18.45;12.77;;;;;;;;;;5003172;28;20072;-73
2021/05/09 02:58:46;;;;;;;17.58;12.38;;;;;;;;;;5002999;28;20047;-73
2021/05/09 03:01:12;;;;;;;20.42;12.13;;;;;;;;;;5017129;28;20045;-74
2021/05/09 03:03:38;;;;;;;16.30;11.98;;;;;;;;;;5026417;28;20045;-73
2021/05/09 03:06:05;;;;;;;19.25;12.95;;;;;;;;;;5010163;28;20038;-73
2021/05/09 03:08:34;;;;;;;19.63;11.35;;;;;;;;;;5025210;28;20038;-73
2021/05/09 03:11:00;;;;;;;19.95;11.40;;;;;;;;;;5026449;28;20037;-73
2021/05/09 03:13:26;;;;;;;14.25;11.23;;;;;;;;;;5025223;28;20056;-73
2021/05/09 03:15:53;;;;;;;18.52;11.52;;;;;;;;;;5025649;28;20493;-73
2021/05/09 03:18:25;;;;;;;18.88;11.07;;;;;;;;;;5023430;28;20113;-73
2021/05/09 03:20:51;;;;;;;19.92;11.07;;;;;;;;;;5026260;28;20424;-73
2021/05/09 03:23:18;;;;;;;19.17;10.38;;;;;;;;;;5027517;28;20737;-73
2021/05/09 03:25:45;;;;;;;18.73;10.38;;;;;;;;;;5025289;28;20049;-73
2021/05/09 03:28:11;;;;;;;18.65;10.48;;;;;;;;;;5027202;28;20065;-73
2021/05/09 03:30:38;;;;;;;15.52;9.75;;;;;;;;;;5025228;28;20051;-73
2021/05/09 03:33:04;;;;;;;15.18;9.00;;;;;;;;;;5024592;28;20511;-73
2021/05/09 03:35:30;;;;;;;14.88;9.68;;;;;;;;;;5012538;28;20216;-73
2021/05/09 03:37:56;;;;;;;13.40;9.40;;;;;;;;;;4998832;28;20091;-73
2021/05/09 03:40:22;;;;;;;14.90;8.98;;;;;;;;;;5005589;28;20076;-73
2021/05/09 03:42:49;;;;;;;19.17;9.00;;;;;;;;;;5007605;28;20449;-73
2021/05/09 03:45:15;;;;;;;12.20;8.88;;;;;;;;;;5027234;28;20092;-73
2021/05/09 03:47:41;;;;;;;15.48;9.43;;;;;;;;;;5008659;28;20125;-73
2021/05/09 03:50:08;;;;;;;17.55;9.20;;;;;;;;;;5024689;28;20481;-73
2021/05/09 03:52:34;;;;;;;14.07;8.50;;;;;;;;;;5025014;28;20476;-73
2021/05/09 03:55:00;;;;;;;14.88;8.10;;;;;;;;;;5006821;28;20045;-73
2021/05/09 03:57:29;;;;;;;14.45;8.65;;;;;;;;;;5019590;28;20488;-73
2021/05/09 03:59:56;;;;;;;16.80;9.20;;;;;;;;;;5004519;28;20067;-73
2021/05/09 04:02:22;;;;;;;13.80;8.25;;;;;;;;;;4999110;28;20048;-74
2021/05/09 04:04:49;;;;;;;11.98;7.78;;;;;;;;;;5014565;28;20079;-73
2021/05/09 04:07:15;;;;;;;13.82;8.35;;;;;;;;;;5025371;28;20091;-73
2021/05/09 04:09:42;;;;;;;17.95;8.88;;;;;;;;;;5025196;28;20048;-73
2021/05/09 04:12:08;;;;;;;17.08;9.18;;;;;;;;;;5026882;28;20463;-74
2021/05/09 04:14:35;;;;;;;14.88;8.35;;;;;;;;;;5024942;28;20048;-74
2021/05/09 04:17:01;;;;;;;17.90;8.90;;;;;;;;;;5024070;28;20045;-73
2021/05/09 04:19:27;;;;;;;13.77;8.85;;;;;;;;;;5025140;28;20041;-73
2021/05/09 04:21:53;;;;;;;14.43;8.75;;;;;;;;;;5022045;28;20037;-73
2021/05/09 04:24:20;;;;;;;16.10;9.70;;;;;;;;;;5024342;28;20464;-74
2021/05/09 04:26:46;;;;;;;12.98;7.97;;;;;;;;;;5022409;28;20042;-73
2021/05/09 04:29:13;;;;;;;17.50;8.27;;;;;;;;;;5023468;28;20481;-73
2021/05/09 04:31:39;;;;;;;12.90;8.80;;;;;;;;;;5009911;28;20064;-73
2021/05/09 04:34:05;;;;;;;13.75;8.52;;;;;;;;;;5023819;28;20121;-74
2021/05/09 04:36:31;;;;;;;20.08;10.25;;;;;;;;;;5000372;28;20417;-73
2021/05/09 04:38:58;;;;;;;12.07;8.05;;;;;;;;;;4999070;28;20072;-73
2021/05/09 04:41:24;;;;;;;16.30;9.27;;;;;;;;;;5000367;28;20164;-73
2021/05/09 04:43:50;;;;;;;17.77;9.38;;;;;;;;;;4998275;28;20056;-73
2021/05/09 04:46:17;;;;;;;14.73;9.35;;;;;;;;;;4996768;28;20474;-73
2021/05/09 04:48:43;;;;;;;13.48;8.50;;;;;;;;;;4997884;28;20064;-73
2021/05/09 04:51:09;;;;;;;15.88;9.30;;;;;;;;;;4997615;28;20051;-73
2021/05/09 04:53:36;;;;;;;16.25;9.85;;;;;;;;;;5014402;28;20053;-74
2021/05/09 04:56:06;;;;;;;18.40;9.43;;;;;;;;;;5020065;28;20108;-73
2021/05/09 04:58:32;;;;;;;14.65;8.55;;;;;;;;;;5023022;28;20382;-73
2021/05/09 05:01:00;;;;;;;17.52;8.45;;;;;;;;;;5023430;28;20079;-74
2021/05/09 05:03:27;;;;;;;16.50;9.20;;;;;;;;;;5024551;28;20060;-74
2021/05/09 05:05:54;;;;;;;14.52;8.82;;;;;;;;;;5023660;28;20501;-73
2021/05/09 05:08:20;;;;;;;18.30;9.02;;;;;;;;;;5024665;28;20086;-74
2021/05/09 05:10:47;;;;;;;13.13;8.57;;;;;;;;;;5023793;28;20127;-74
2021/05/09 05:13:20;;;;;;;16.73;8.23;;;;;;;;;;5013469;28;21470;-73
2021/05/09 05:15:47;;;;;;;13.23;8.83;;;;;;;;;;5014130;28;20397;-74
2021/05/09 05:18:13;;;;;;;14.38;7.95;;;;;;;;;;5023171;28;20391;-74
2021/05/09 05:20:40;;;;;;;13.95;7.47;;;;;;;;;;5023480;28;20041;-74
2021/05/09 05:23:06;;;;;;;14.82;9.35;;;;;;;;;;5023876;28;20072;-74
2021/05/09 05:25:32;;;;;;;12.80;8.07;;;;;;;;;;5021687;28;20041;-74
2021/05/09 05:28:00;;;;;;;13.65;8.15;;;;;;;;;;5025338;28;20342;-74
2021/05/09 05:30:27;;;;;;;14.85;8.52;;;;;;;;;;5024877;28;20098;-73
2021/05/09 05:32:53;;;;;;;11.27;8.10;;;;;;;;;;5024692;28;20038;-74
2021/05/09 05:35:19;;;;;;;15.55;8.40;;;;;;;;;;5008765;28;20208;-74
2021/05/09 05:37:46;;;;;;;12.52;7.93;;;;;;;;;;4998322;28;20136;-73
2021/05/09 05:40:12;;;;;;;14.70;8.93;;;;;;;;;;5012057;28;20044;-74
2021/05/09 05:42:39;;;;;;;13.60;8.20;;;;;;;;;;5024361;28;20079;-74
2021/05/09 05:45:05;;;;;;;18.05;7.68;;;;;;;;;;5024476;28;20046;-74
2021/05/09 05:47:32;;;;;;;11.20;7.55;;;;;;;;;;5023403;28;20042;-73
2021/05/09 05:49:59;;;;;;;16.38;7.90;;;;;;;;;;5024606;28;20090;-73
2021/05/09 05:52:25;;;;;;;13.70;7.82;;;;;;;;;;5020373;28;20104;-74
2021/05/09 05:54:51;;;;;;;12.90;8.23;;;;;;;;;;5025470;28;20068;-73
2021/05/09 05:57:17;;;;;;;15.18;8.20;;;;;;;;;;5023221;28;20061;-74
2021/05/09 05:59:45;;;;;;;13.18;7.32;;;;;;;;;;5015273;28;20045;-73
2021/05/09 06:02:11;;;;;;;13.82;7.00;;;;;;;;;;5023194;28;20084;-73
2021/05/09 06:04:39;;;;;;;13.30;7.97;;;;;;;;;;5023889;28;20515;-73
2021/05/09 06:07:07;;;;;;;12.68;6.90;;;;;;;;;;5027493;28;20357;-74
2021/05/09 06:09:33;;;;;;;11.93;6.55;;;;;;;;;;5023196;28;20041;-75
2021/05/09 06:12:00;;;;;;;13.20;6.65;;;;;;;;;;5024159;28;20045;-74
2021/05/09 06:14:26;;;;;;;11.63;6.78;;;;;;;;;;5028051;28;20140;-75
2021/05/09 06:16:53;;;;;;;9.82;5.82;;;;;;;;;;5028884;28;20123;-75
2021/05/09 06:19:19;;;;;;;11.23;6.18;;;;;;;;;;5028185;28;20107;-76
2021/05/09 06:21:45;;;;;;;12.52;6.70;;;;;;;;;;5027193;28;20103;-75
2021/05/09 06:24:11;;;;;;;14.90;7.80;;;;;;;;;;5028892;28;20125;-75
2021/05/09 06:26:38;;;;;;;10.00;6.63;;;;;;;;;;5028364;28;20068;-75
2021/05/09 06:29:04;;;;;;;12.27;6.88;;;;;;;;;;5026270;28;20147;-75
2021/05/09 06:31:31;;;;;;;10.18;6.78;;;;;;;;;;5029049;28;20038;-76
2021/05/09 06:33:57;;;;;;;10.07;6.72;;;;;;;;;;5027940;28;20130;-75
2021/05/09 06:36:23;;;;;;;11.65;7.15;;;;;;;;;;4984155;28;20068;-75
2021/05/09 06:38:50;;;;;;;12.82;6.97;;;;;;;;;;5004109;28;20060;-75
2021/05/09 06:41:18;;;;;;;9.52;6.20;;;;;;;;;;5030983;28;20045;-75
2021/05/09 06:43:44;;;;;;;8.20;5.55;;;;;;;;;;5032494;28;20042;-75
2021/05/09 06:46:11;;;;;;;13.95;6.72;;;;;;;;;;5032688;28;20068;-75
2021/05/09 06:48:37;;;;;;;11.73;6.93;;;;;;;;;;5031650;28;20095;-75
2021/05/09 06:51:03;;;;;;;11.77;6.72;;;;;;;;;;5032740;28;20104;-76
2021/05/09 06:53:30;;;;;;;12.00;6.50;;;;;;;;;;5032599;28;20071;-76
2021/05/09 06:55:58;;;;;;;10.73;6.30;;;;;;;;;;5031007;28;20095;-75
2021/05/09 06:58:24;;;;;;;15.65;6.75;;;;;;;;;;5030960;28;20037;-75
2021/05/09 07:00:51;;;;;;;11.30;6.00;;;;;;;;;;5025397;28;20136;-83
2021/05/09 07:03:17;;;;;;;8.90;5.72;;;;;;;;;;5027555;28;20132;-78
2021/05/09 07:05:44;;;;;;;12.25;6.22;;;;;;;;;;5032137;28;20049;-78
2021/05/09 07:08:10;;;;;;;10.13;5.93;;;;;;;;;;5027051;28;20117;-77
2021/05/09 07:10:37;;;;;;;10.38;6.00;;;;;;;;;;5029235;28;20037;-77
2021/05/09 07:13:04;;;;;;;14.30;7.70;;;;;;;;;;5032271;28;20486;-77
2021/05/09 07:15:38;;;;;;;11.50;6.03;;;;;;;;;;5007786;28;20073;-77
2021/05/09 07:18:09;;;;;;;13.00;5.97;;;;;;;;;;5030090;28;20129;-74
2021/05/09 07:20:39;;;;;;;12.50;6.18;;;;;;;;;;5028082;28;20041;-74
2021/05/09 07:23:06;;;;;;;10.18;5.57;;;;;;;;;;5026747;28;20061;-73
2021/05/09 07:25:33;;;;;;;10.60;5.45;;;;;;;;;;5027805;28;20065;-78
2021/05/09 07:28:04;;;;;;;11.90;6.30;;;;;;;;;;5023604;28;20136;-77
2021/05/09 07:30:31;;;;;;;12.02;5.68;;;;;;;;;;5026379;28;20108;-78
2021/05/09 07:32:57;;;;;;;8.88;5.10;;;;;;;;;;5018195;28;20037;-78
2021/05/09 07:35:24;;;;;;;11.35;5.13;;;;;;;;;;5015759;28;20049;-78
2021/05/09 07:37:52;;;;;;;9.10;5.50;;;;;;;;;;4999763;28;20058;-78
2021/05/09 07:40:18;;;;;;;8.77;5.65;;;;;;;;;;4998173;28;20087;-78
2021/05/09 07:42:45;;;;;;;9.07;4.97;;;;;;;;;;5000652;28;20038;-78
2021/05/09 07:45:16;;;;;;;10.05;5.80;;;;;;;;;;5000925;28;20077;-78
2021/05/09 07:47:43;;;;;;;8.18;4.78;;;;;;;;;;5003433;28;20050;-78
2021/05/09 07:50:10;;;;;;;8.50;5.35;;;;;;;;;;5027575;28;20057;-78
2021/05/09 07:52:36;;;;;;;7.55;4.63;;;;;;;;;;5027251;28;20057;-78
2021/05/09 07:55:03;;;;;;;9.07;5.32;;;;;;;;;;5023776;28;20131;-79
2021/05/09 07:57:29;;;;;;;17.05;5.93;;;;;;;;;;5013302;28;20171;-78
2021/05/09 07:59:56;;;;;;;11.35;4.97;;;;;;;;;;5017367;28;20124;-78
2021/05/09 08:02:22;;;;;;;10.23;5.07;;;;;;;;;;5013255;28;20049;-78
2021/05/09 08:04:48;;;;;;;9.32;4.22;;;;;;;;;;5018267;28;20096;-78
2021/05/09 08:07:15;;;;;;;8.40;4.55;;;;;;;;;;5020292;28;20116;-78
2021/05/09 08:09:41;;;;;;;8.07;4.82;;;;;;;;;;5027025;28;20111;-78
2021/05/09 08:12:08;;;;;;;7.97;4.20;;;;;;;;;;5026574;28;20092;-78
2021/05/09 08:14:34;;;;;;;10.60;5.40;;;;;;;;;;5011857;28;20125;-78
2021/05/09 08:17:01;;;;;;;9.45;5.07;;;;;;;;;;5012306;28;20046;-78
2021/05/09 08:19:27;;;;;;;8.15;4.72;;;;;;;;;;5003735;28;20060;-79
2021/05/09 08:21:53;;;;;;;8.57;4.28;;;;;;;;;;5016024;28;20050;-78
2021/05/09 08:24:19;;;;;;;8.30;4.55;;;;;;;;;;5003849;28;20497;-79
2021/05/09 08:26:46;;;;;;;8.45;4.72;;;;;;;;;;5019570;28;20049;-81
2021/05/09 08:29:12;;;;;;;8.40;4.28;;;;;;;;;;5019789;28;20101;-77
2021/05/09 08:31:38;;;;;;;10.43;4.57;;;;;;;;;;5025536;28;20042;-77
2021/05/09 08:34:05;;;;;;;7.97;4.78;;;;;;;;;;5012928;28;20053;-77
2021/05/09 08:36:31;;;;;;;9.48;4.38;;;;;;;;;;5024900;28;20060;-77
2021/05/09 08:38:57;;;;;;;6.70;4.40;;;;;;;;;;5016617;28;20123;-77
2021/05/09 08:41:25;;;;;;;9.55;4.57;;;;;;;;;;5004030;28;20346;-77
2021/05/09 08:43:51;;;;;;;11.82;4.10;;;;;;;;;;5024913;28;20042;-77
2021/05/09 08:46:20;;;;;;;6.68;4.10;;;;;;;;;;5020704;28;20366;-77
2021/05/09 08:48:48;;;;;;;9.57;4.85;;;;;;;;;;5024627;28;20128;-77
2021/05/09 08:51:14;;;;;;;8.40;4.18;;;;;;;;;;5020093;28;20041;-77
2021/05/09 08:53:43;;;;;;;8.32;4.07;;;;;;;;;;5007773;28;20050;-78
2021/05/09 08:56:09;;;;;;;10.88;4.75;;;;;;;;;;5020931;28;20038;-77
2021/05/09 08:58:41;;;;;;;8.45;4.05;;;;;;;;;;5022923;28;20389;-78
2021/05/09 09:01:08;;;;;;;9.32;4.43;;;;;;;;;;5027219;28;20095;-77
2021/05/09 09:03:34;;;;;;;10.93;4.90;;;;;;;;;;5021871;28;20499;-78
2021/05/09 09:06:03;;;;;;;8.43;5.10;;;;;;;;;;5024305;28;20131;-77
2021/05/09 09:08:48;;;;;;;10.45;4.85;;;;;;;;;;5019266;28;20405;-72
2021/05/09 09:11:14;;;;;;;11.77;4.65;;;;;;;;;;5011193;28;20053;-72
2021/05/09 09:13:40;;;;;;;8.55;5.45;;;;;;;;;;5010921;28;20045;-72
2021/05/09 09:16:07;;;;;;;8.10;4.60;;;;;;;;;;5010430;28;20414;-72
2021/05/09 09:18:38;;;;;;;8.63;5.07;;;;;;;;;;5010896;28;20108;-72
2021/05/09 09:21:23;;;;;;;8.98;5.43;;;;;;;;;;5010885;28;20129;-73
2021/05/09 09:23:50;;;;;;;12.20;5.38;;;;;;;;;;5009929;28;20037;-72
2021/05/09 09:26:30;;;;;;;12.10;5.68;;;;;;;;;;5010750;28;20767;-72
2021/05/09 09:28:57;;;;;;;8.38;5.40;;;;;;;;;;5009843;28;20092;-72
2021/05/09 09:31:36;;;;;;;7.60;5.75;;;;;;;;;;5004165;28;20045;-72
2021/05/09 09:34:03;;;;;;;9.00;6.05;;;;;;;;;;5014086;28;20504;-72
2021/05/09 09:36:29;;;;;;;7.30;4.75;;;;;;;;;;5021086;28;20053;-72
2021/05/09 09:38:55;;;;;;;9.18;4.78;;;;;;;;;;5013284;28;20492;-72
2021/05/09 09:41:23;;;;;;;8.50;4.55;;;;;;;;;;5014426;28;20045;-73
2021/05/09 09:44:09;;;;;;;7.47;4.05;;;;;;;;;;5017191;28;20037;-73
2021/05/09 09:46:36;;;;;;;7.35;3.70;;;;;;;;;;5014206;28;20125;-73
2021/05/09 09:49:04;;;;;;;8.23;4.13;;;;;;;;;;5017641;28;20049;-73
2021/05/09 09:51:47;;;;;;;8.38;3.85;;;;;;;;;;5013431;28;20136;-73
2021/05/09 09:54:30;;;;;;;7.30;4.15;;;;;;;;;;5014655;28;20041;-73
2021/05/09 09:56:56;;;;;;;9.50;4.43;;;;;;;;;;5003035;28;20041;-73
2021/05/09 09:59:22;;;;;;;7.53;5.15;;;;;;;;;;4998598;28;20111;-73
2021/05/09 10:01:48;;;;;;;8.98;5.20;;;;;;;;;;5005088;28;20090;-74
2021/05/09 10:04:15;;;;;;;8.50;5.35;;;;;;;;;;5018847;28;20075;-72
2021/05/09 10:06:41;;;;;;;8.10;5.90;;;;;;;;;;5021612;28;20464;-75
2021/05/09 10:09:08;;;;;;;11.35;6.28;;;;;;;;;;5023743;28;20053;-73
2021/05/09 10:11:35;;;;;;;12.13;5.88;;;;;;;;;;5029115;28;20143;-73
2021/05/09 10:14:02;;;;;;;10.32;5.88;;;;;;;;;;5031590;28;20128;-73
2021/05/09 10:16:31;;;;;;;12.32;5.28;;;;;;;;;;5029433;28;20033;-73
2021/05/09 10:18:58;;;;;;;11.48;6.63;;;;;;;;;;5027413;28;20049;-72
2021/05/09 10:21:31;;;;;;;6.80;4.63;;;;;;;;;;5031704;28;20136;-72
2021/05/09 10:24:11;;;;;;;6.95;4.82;;;;;;;;;;5018431;28;20048;-73
2021/05/09 10:26:44;;;;;;;9.35;5.47;;;;;;;;;;5031576;28;20047;-73
2021/05/09 10:29:29;;;;;;;7.50;5.57;;;;;;;;;;5031400;28;20079;-72
2021/05/09 10:31:55;;;;;;;9.70;5.50;;;;;;;;;;5029154;28;20059;-72
2021/05/09 10:34:41;;;;;;;7.80;5.85;;;;;;;;;;5026750;28;20072;-72
2021/05/09 10:37:08;;;;;;;10.07;5.55;;;;;;;;;;5027374;28;20103;-73
2021/05/09 10:39:34;;;;;;;8.52;5.25;;;;;;;;;;5014436;28;20057;-73
2021/05/09 10:42:00;;;;;;;10.52;6.38;;;;;;;;;;5009622;28;20054;-73
2021/05/09 10:44:40;;;;;;;9.57;6.57;;;;;;;;;;5029962;28;20132;-73
2021/05/09 10:47:08;;;;;;;11.13;5.95;;;;;;;;;;5027693;28;20090;-73
2021/05/09 10:49:34;;;;;;;10.50;5.72;;;;;;;;;;5014085;28;20065;-72
2021/05/09 10:52:20;;;;;;;11.15;5.80;;;;;;;;;;5028717;28;20115;-72
2021/05/09 10:54:46;;;;;;;9.15;5.32;;;;;;;;;;5020202;28;20048;-73
2021/05/09 10:57:32;;;;;;;9.05;5.10;;;;;;;;;;5003346;28;20069;-73
2021/05/09 10:59:59;;;;;;;8.52;4.57;;;;;;;;;;5024866;28;20393;-72
2021/05/09 11:02:29;;;;;;;8.02;4.60;;;;;;;;;;5026536;28;20091;-73
2021/05/09 11:04:56;;;;;;;7.63;4.70;;;;;;;;;;5031586;28;20396;-72
2021/05/09 11:07:41;;;;;;;7.43;4.22;;;;;;;;;;5026733;28;20049;-74
2021/05/09 11:10:38;;;;;;;7.55;4.22;;;;;;;;;;5018851;28;20041;-78
2021/05/09 11:13:05;;;;;;;8.13;4.22;;;;;;;;;;5027963;28;20127;-79
2021/05/09 11:15:31;;;;;;;6.75;3.50;;;;;;;;;;5028058;28;20042;-78
2021/05/09 11:17:58;;;;;;;7.35;3.55;;;;;;;;;;5028501;28;20049;-79
2021/05/09 11:20:25;;;;;;;5.03;2.67;;;;;;;;;;5027218;28;20046;-79
2021/05/09 11:22:58;;;;;;;8.10;3.45;;;;;;;;;;5012634;28;20041;-79
2021/05/09 11:25:31;;;;;;;7.22;3.30;;;;;;;;;;5028361;28;20042;-79
2021/05/09 11:27:57;;;;;;;;;;;;;;;;;;5011097;28;20049;-79
2021/05/09 11:30:38;;;;;;;10.05;3.13;;;;;;;;;;5020660;28;19999;-79
2021/05/09 11:33:04;;;;;;;5.88;3.35;;;;;;;;;;5027588;28;20044;-79
2021/05/09 11:35:37;;;;;;;5.32;2.75;;;;;;;;;;5029337;28;20174;-79
2021/05/09 11:38:03;;;;;;;6.53;3.00;;;;;;;;;;5025155;28;20040;-79
2021/05/09 11:40:30;;;;;;;5.30;2.75;;;;;;;;;;5029947;28;20437;-75
2021/05/09 11:42:56;;;;;;;5.45;2.65;;;;;;;;;;5027036;28;20038;-75
2021/05/09 11:45:26;;;;;;;7.38;2.83;;;;;;;;;;5030295;28;20799;-73
2021/05/09 11:47:52;;;;;;;9.25;2.70;;;;;;;;;;5025360;28;20764;-73
2021/05/09 11:50:19;;;;;;;5.32;2.55;;;;;;;;;;5029305;28;20065;-73
2021/05/09 11:52:45;;;;;;;6.13;2.95;;;;;;;;;;5023867;28;20215;-73
2021/05/09 11:55:14;;;;;;;9.65;2.97;;;;;;;;;;5029684;28;20045;-73
2021/05/09 11:57:40;;;;;;;6.35;2.88;;;;;;;;;;5006057;28;20044;-73
2021/05/09 12:00:25;;;;;;;7.70;3.30;;;;;;;;;;5028037;28;20045;-73
2021/05/09 12:02:52;;;;;;;7.95;3.15;;;;;;;;;;5026916;28;20042;-73
2021/05/09 12:05:19;;;;;;;6.60;2.60;;;;;;;;;;5027657;28;20073;-73
2021/05/09 12:07:49;;;;;;;10.23;3.45;;;;;;;;;;5029374;28;20045;-73
2021/05/09 12:10:24;;;;;;;5.57;2.50;;;;;;;;;;5027292;28;20073;-73
2021/05/09 12:13:06;;;;;;;5.75;1.70;;;;;;;;;;5019519;28;20045;-73
2021/05/09 12:15:39;;;;;;;4.40;1.40;;;;;;;;;;5027009;28;20124;-73
2021/05/09 12:18:07;;;;;;;5.28;1.80;;;;;;;;;;5028215;28;20056;-73
2021/05/09 12:20:40;;;;;;;3.78;1.52;;;;;;;;;;5028727;28;20069;-73
2021/05/09 12:23:07;;;;;;;5.55;1.52;;;;;;;;;;5027382;28;20058;-72
2021/05/09 12:25:40;;;;;;;4.70;1.60;;;;;;;;;;5025893;28;20037;-73
2021/05/09 12:28:21;;;;;;;6.18;1.85;;;;;;;;;;5024131;28;20053;-73
2021/05/09 12:30:48;;;;;;;8.55;2.00;;;;;;;;;;5027799;28;20064;-73
2021/05/09 12:33:30;;;;;;;3.53;1.50;;;;;;;;;;5025775;28;20037;-73
2021/05/09 12:35:58;;;;;;;4.20;1.50;;;;;;;;;;5026309;28;20125;-73
2021/05/09 12:38:29;;;;;;;4.38;1.60;;;;;;;;;;5026353;28;20247;-73
2021/05/09 12:41:03;;;;;;;5.00;1.40;;;;;;;;;;5024896;28;20081;-73
2021/05/09 12:43:40;;;;;;;7.18;1.70;;;;;;;;;;5030049;28;20076;-73
2021/05/09 12:46:07;;;;;;;3.67;1.40;;;;;;;;;;5024696;28;20053;-73
2021/05/09 12:48:33;;;;;;;3.50;1.60;;;;;;;;;;5008860;28;20100;-73
2021/05/09 12:51:03;;;;;;;3.38;1.52;;;;;;;;;;5026655;28;20129;-73
2021/05/09 12:53:40;;;;;;;5.38;1.75;;;;;;;;;;5025936;28;20048;-73
2021/05/09 12:56:14;;;;;;;4.88;1.65;;;;;;;;;;5026336;28;20345;-74
2021/05/09 12:58:58;;;;;;;7.43;2.03;;;;;;;;;;5027104;28;20043;-74
2021/05/09 13:01:24;;;;;;;4.07;1.80;;;;;;;;;;5027584;28;20049;-73
2021/05/09 13:03:51;;;;;;;4.00;1.90;;;;;;;;;;5027136;28;20133;-72
2021/05/09 13:06:17;;;;;;;4.90;1.58;;;;;;;;;;5027155;28;20056;-72
2021/05/09 13:08:43;;;;;;;5.72;1.98;;;;;;;;;;5026448;28;20049;-72
2021/05/09 13:11:09;;;;;;;6.43;2.00;;;;;;;;;;5024826;28;20396;-71
2021/05/09 13:13:36;;;;;;;3.95;1.83;;;;;;;;;;5022950;28;20409;-72
2021/05/09 13:16:02;;;;;;;3.47;1.98;;;;;;;;;;5014013;28;20212;-72
2021/05/09 13:18:29;;;;;;;3.30;1.80;;;;;;;;;;5020393;28;20041;-72
2021/05/09 13:20:55;;;;;;;4.22;1.90;;;;;;;;;;5028302;28;20563;-72
2021/05/09 13:23:21;;;;;;;6.30;2.53;;;;;;;;;;5026544;28;20068;-72
2021/05/09 13:25:50;;;;;;;7.10;2.47;;;;;;;;;;5026235;28;20457;-72
2021/05/09 13:28:16;;;;;;;5.85;2.83;;;;;;;;;;5011942;28;20068;-73
2021/05/09 13:30:42;;;;;;;6.47;3.05;;;;;;;;;;5023958;28;20084;-72
2021/05/09 13:33:08;;;;;;;7.10;3.50;;;;;;;;;;5029032;28;20388;-72
2021/05/09 13:35:35;;;;;;;4.80;3.00;;;;;;;;;;5024467;28;20044;-72
2021/05/09 13:38:01;;;;;;;7.07;3.60;;;;;;;;;;5028223;28;20042;-72
2021/05/09 13:40:28;;;;;;;6.55;3.75;;;;;;;;;;5026286;28;20061;-73
2021/05/09 13:42:54;;;;;;;6.78;3.67;;;;;;;;;;5026028;28;20080;-72
2021/05/09 13:45:20;;;;;;;6.10;3.65;;;;;;;;;;5028745;28;20046;-73
2021/05/09 13:47:49;;;;;;;8.23;3.38;;;;;;;;;;5026571;28;20033;-73
2021/05/09 13:50:16;;;;;;;5.60;3.15;;;;;;;;;;5027657;28;20052;-73
2021/05/09 13:52:42;;;;;;;6.40;3.30;;;;;;;;;;5025478;28;20038;-72
2021/05/09 13:55:09;;;;;;;6.55;3.45;;;;;;;;;;5010109;28;20057;-73
2021/05/09 13:57:36;;;;;;;6.30;3.05;;;;;;;;;;5024824;28;20049;-73
2021/05/09 14:00:04;;;;;;;4.93;2.88;;;;;;;;;;5027382;28;20045;-73
2021/05/09 14:02:30;;;;;;;6.25;3.03;;;;;;;;;;5027995;28;20119;-73
2021/05/09 14:04:57;;;;;;;5.10;2.47;;;;;;;;;;5025604;28;20080;-74
2021/05/09 14:07:23;;;;;;;6.13;2.92;;;;;;;;;;5027249;28;20063;-73
2021/05/09 14:09:49;;;;;;;8.38;2.90;;;;;;;;;;5025950;28;20381;-75
2021/05/09 14:12:15;;;;;;;10.10;3.45;;;;;;;;;;5026693;28;20042;-73
2021/05/09 14:14:42;;;;;;;7.90;3.10;;;;;;;;;;5024532;28;20045;-73
2021/05/09 14:17:09;;;;;;;5.72;2.80;;;;;;;;;;5025202;28;20099;-73
2021/05/09 14:19:36;;;;;;;9.80;3.10;;;;;;;;;;5028134;28;20128;-73
2021/05/09 14:22:03;;;;;;;4.95;2.83;;;;;;;;;;5022653;28;20069;-73
2021/05/09 14:24:29;;;;;;;5.30;3.15;;;;;;;;;;5028327;28;20060;-73
2021/05/09 14:26:55;;;;;;;6.65;2.90;;;;;;;;;;5026806;28;20128;-73
2021/05/09 14:29:22;;;;;;;5.82;3.05;;;;;;;;;;5025720;28;20053;-73
2021/05/09 14:31:49;;;;;;;8.93;3.15;;;;;;;;;;5028556;28;20085;-73
2021/05/09 14:34:15;;;;;;;4.63;2.90;;;;;;;;;;5022319;28;20057;-73
2021/05/09 14:36:42;;;;;;;9.65;3.42;;;;;;;;;;5028070;28;20145;-73
2021/05/09 14:39:08;;;;;;;7.78;3.15;;;;;;;;;;5020904;28;20574;-73